sensor_id;sensor_type;location;lat;lon;timestamp;temperature;humidity
43087;DHT22;28708;52.224;6.924;2023-04-10T00:01:49;7.80;99.90
43087;DHT22;28708;52.224;6.924;2023-04-10T00:04:15;7.80;99.90
43087;DHT22;28708;52.224;6.924;2023-04-10T00:06:41;7.80;99.90
43087;DHT22;28708;52.224;6.924;2023-04-10T00:09:09;7.80;99.90
43087;DHT22;28708;52.224;6.924;2023-04-10T00:11:34;7.80;99.90
43087;DHT22;28708;52.224;6.924;2023-04-10T00:14:00;7.80;99.90
43087;DHT22;28708;52.224;6.924;2023-04-10T00:16:25;7.80;99.90
43087;DHT22;28708;52.224;6.924;2023-04-10T00:18:51;7.80;99.90
43087;DHT22;28708;52.224;6.924;2023-04-10T00:21:17;7.70;99.90
43087;DHT22;28708;52.224;6.924;2023-04-10T00:23:42;7.80;99.90
43087;DHT22;28708;52.224;6.924;2023-04-10T00:26:08;7.80;99.90
43087;DHT22;28708;52.224;6.924;2023-04-10T00:28:34;7.80;99.90
43087;DHT22;28708;52.224;6.924;2023-04-10T00:31:03;7.80;99.90
43087;DHT22;28708;52.224;6.924;2023-04-10T00:33:29;7.80;99.90
43087;DHT22;28708;52.224;6.924;2023-04-10T00:35:55;7.80;99.90
43087;DHT22;28708;52.224;6.924;2023-04-10T00:38:20;7.80;99.90
43087;DHT22;28708;52.224;6.924;2023-04-10T00:40:47;7.80;99.90
43087;DHT22;28708;52.224;6.924;2023-04-10T00:43:13;7.80;99.90
43087;DHT22;28708;52.224;6.924;2023-04-10T00:45:39;7.80;99.90
43087;DHT22;28708;52.224;6.924;2023-04-10T00:48:04;7.70;99.90
43087;DHT22;28708;52.224;6.924;2023-04-10T00:50:31;7.70;99.90
43087;DHT22;28708;52.224;6.924;2023-04-10T00:52:57;7.70;99.90
43087;DHT22;28708;52.224;6.924;2023-04-10T00:55:23;7.80;99.90
43087;DHT22;28708;52.224;6.924;2023-04-10T00:57:50;7.80;99.90
43087;DHT22;28708;52.224;6.924;2023-04-10T01:00:18;7.80;99.90
43087;DHT22;28708;52.224;6.924;2023-04-10T01:02:45;7.80;99.90
43087;DHT22;28708;52.224;6.924;2023-04-10T01:05:11;7.90;99.90
43087;DHT22;28708;52.224;6.924;2023-04-10T01:08:07;7.90;99.90
43087;DHT22;28708;52.224;6.924;2023-04-10T01:10:57;7.90;99.90
43087;DHT22;28708;52.224;6.924;2023-04-10T01:13:30;7.90;99.90
43087;DHT22;28708;52.224;6.924;2023-04-10T01:21:56;7.80;99.90
43087;DHT22;28708;52.224;6.924;2023-04-10T01:27:29;7.80;99.90
43087;DHT22;28708;52.224;6.924;2023-04-10T01:30:00;7.80;99.90
43087;DHT22;28708;52.224;6.924;2023-04-10T01:32:28;7.80;99.90
43087;DHT22;28708;52.224;6.924;2023-04-10T01:34:56;7.80;99.90
43087;DHT22;28708;52.224;6.924;2023-04-10T01:37:30;7.70;99.90
43087;DHT22;28708;52.224;6.924;2023-04-10T01:40:03;7.70;99.90
43087;DHT22;28708;52.224;6.924;2023-04-10T01:42:36;7.60;99.90
43087;DHT22;28708;52.224;6.924;2023-04-10T01:45:06;7.50;99.90
43087;DHT22;28708;52.224;6.924;2023-04-10T01:47:32;7.60;99.90
43087;DHT22;28708;52.224;6.924;2023-04-10T01:49:59;7.60;99.90
43087;DHT22;28708;52.224;6.924;2023-04-10T01:52:27;7.50;99.90
43087;DHT22;28708;52.224;6.924;2023-04-10T01:55:15;7.50;99.90
43087;DHT22;28708;52.224;6.924;2023-04-10T01:57:47;7.60;99.90
43087;DHT22;28708;52.224;6.924;2023-04-10T02:00:15;7.70;99.90
43087;DHT22;28708;52.224;6.924;2023-04-10T02:02:42;7.70;99.90
43087;DHT22;28708;52.224;6.924;2023-04-10T02:05:08;7.70;99.90
43087;DHT22;28708;52.224;6.924;2023-04-10T02:07:49;7.80;99.90
43087;DHT22;28708;52.224;6.924;2023-04-10T02:10:28;7.90;99.90
43087;DHT22;28708;52.224;6.924;2023-04-10T02:13:01;7.90;99.90
43087;DHT22;28708;52.224;6.924;2023-04-10T02:15:30;7.90;99.90
43087;DHT22;28708;52.224;6.924;2023-04-10T02:17:58;7.90;99.90
43087;DHT22;28708;52.224;6.924;2023-04-10T02:20:25;7.80;99.90
43087;DHT22;28708;52.224;6.924;2023-04-10T02:22:52;7.80;99.90
43087;DHT22;28708;52.224;6.924;2023-04-10T02:25:18;7.80;99.90
43087;DHT22;28708;52.224;6.924;2023-04-10T02:27:43;7.80;99.90
43087;DHT22;28708;52.224;6.924;2023-04-10T02:30:10;7.80;99.90
43087;DHT22;28708;52.224;6.924;2023-04-10T02:32:36;7.70;99.90
43087;DHT22;28708;52.224;6.924;2023-04-10T02:35:02;7.70;99.90
43087;DHT22;28708;52.224;6.924;2023-04-10T02:37:29;7.50;99.90
43087;DHT22;28708;52.224;6.924;2023-04-10T02:39:57;7.50;99.90
43087;DHT22;28708;52.224;6.924;2023-04-10T02:42:24;7.60;99.90
43087;DHT22;28708;52.224;6.924;2023-04-10T02:44:52;7.50;99.90
43087;DHT22;28708;52.224;6.924;2023-04-10T02:47:18;7.50;99.90
43087;DHT22;28708;52.224;6.924;2023-04-10T02:49:45;7.50;99.90
43087;DHT22;28708;52.224;6.924;2023-04-10T02:52:14;7.40;99.90
43087;DHT22;28708;52.224;6.924;2023-04-10T02:54:40;7.50;99.90
43087;DHT22;28708;52.224;6.924;2023-04-10T02:57:06;7.50;99.90
43087;DHT22;28708;52.224;6.924;2023-04-10T02:59:32;7.50;99.90
43087;DHT22;28708;52.224;6.924;2023-04-10T03:02:00;7.60;99.90
43087;DHT22;28708;52.224;6.924;2023-04-10T03:04:26;7.60;99.90
43087;DHT22;28708;52.224;6.924;2023-04-10T03:06:53;7.60;99.90
43087;DHT22;28708;52.224;6.924;2023-04-10T03:09:19;7.70;99.90
43087;DHT22;28708;52.224;6.924;2023-04-10T03:11:44;7.70;99.90
43087;DHT22;28708;52.224;6.924;2023-04-10T03:14:10;7.80;99.90
43087;DHT22;28708;52.224;6.924;2023-04-10T03:16:36;7.80;99.90
43087;DHT22;28708;52.224;6.924;2023-04-10T03:19:02;7.90;99.90
43087;DHT22;28708;52.224;6.924;2023-04-10T03:21:28;7.90;99.90
43087;DHT22;28708;52.224;6.924;2023-04-10T03:23:54;7.90;99.90
43087;DHT22;28708;52.224;6.924;2023-04-10T03:26:20;7.90;99.90
43087;DHT22;28708;52.224;6.924;2023-04-10T03:28:48;7.90;99.90
43087;DHT22;28708;52.224;6.924;2023-04-10T03:31:14;7.90;99.90
43087;DHT22;28708;52.224;6.924;2023-04-10T03:33:42;7.90;99.90
43087;DHT22;28708;52.224;6.924;2023-04-10T03:36:08;7.90;99.90
43087;DHT22;28708;52.224;6.924;2023-04-10T03:38:33;7.80;99.90
43087;DHT22;28708;52.224;6.924;2023-04-10T03:40:59;7.90;99.90
43087;DHT22;28708;52.224;6.924;2023-04-10T03:43:29;7.80;99.90
43087;DHT22;28708;52.224;6.924;2023-04-10T03:45:55;7.90;99.90
43087;DHT22;28708;52.224;6.924;2023-04-10T03:48:22;7.90;99.90
43087;DHT22;28708;52.224;6.924;2023-04-10T03:50:48;7.90;99.90
43087;DHT22;28708;52.224;6.924;2023-04-10T03:53:14;7.90;99.90
43087;DHT22;28708;52.224;6.924;2023-04-10T03:55:41;7.90;99.90
43087;DHT22;28708;52.224;6.924;2023-04-10T03:58:08;7.80;99.90
43087;DHT22;28708;52.224;6.924;2023-04-10T04:00:34;7.80;99.90
43087;DHT22;28708;52.224;6.924;2023-04-10T04:03:09;7.80;99.90
43087;DHT22;28708;52.224;6.924;2023-04-10T04:05:58;7.80;99.90
43087;DHT22;28708;52.224;6.924;2023-04-10T04:08:35;7.70;99.90
43087;DHT22;28708;52.224;6.924;2023-04-10T04:11:15;7.60;99.90
43087;DHT22;28708;52.224;6.924;2023-04-10T04:14:06;7.60;99.90
43087;DHT22;28708;52.224;6.924;2023-04-10T04:16:44;7.40;99.90
43087;DHT22;28708;52.224;6.924;2023-04-10T04:19:21;7.40;99.90
43087;DHT22;28708;52.224;6.924;2023-04-10T04:22:25;7.30;99.90
43087;DHT22;28708;52.224;6.924;2023-04-10T04:25:04;7.30;99.90
43087;DHT22;28708;52.224;6.924;2023-04-10T04:27:53;7.30;99.90
43087;DHT22;28708;52.224;6.924;2023-04-10T04:30:37;7.30;99.90
43087;DHT22;28708;52.224;6.924;2023-04-10T04:33:29;7.30;99.90
43087;DHT22;28708;52.224;6.924;2023-04-10T04:36:18;7.20;99.90
43087;DHT22;28708;52.224;6.924;2023-04-10T04:39:04;7.20;99.90
43087;DHT22;28708;52.224;6.924;2023-04-10T04:41:39;7.20;99.90
43087;DHT22;28708;52.224;6.924;2023-04-10T04:44:28;7.30;99.90
43087;DHT22;28708;52.224;6.924;2023-04-10T04:47:12;7.30;99.90
43087;DHT22;28708;52.224;6.924;2023-04-10T04:50:02;7.30;99.90
43087;DHT22;28708;52.224;6.924;2023-04-10T04:52:53;7.20;99.90
43087;DHT22;28708;52.224;6.924;2023-04-10T04:55:41;7.20;99.90
43087;DHT22;28708;52.224;6.924;2023-04-10T04:58:29;7.10;99.90
43087;DHT22;28708;52.224;6.924;2023-04-10T05:01:10;7.10;99.90
43087;DHT22;28708;52.224;6.924;2023-04-10T05:03:59;7.10;99.90
43087;DHT22;28708;52.224;6.924;2023-04-10T05:06:43;7.10;99.90
43087;DHT22;28708;52.224;6.924;2023-04-10T05:09:19;7.10;99.90
43087;DHT22;28708;52.224;6.924;2023-04-10T05:11:44;7.20;99.90
43087;DHT22;28708;52.224;6.924;2023-04-10T05:14:19;7.10;99.90
43087;DHT22;28708;52.224;6.924;2023-04-10T05:17:03;7.20;99.90
43087;DHT22;28708;52.224;6.924;2023-04-10T05:19:42;7.30;99.90
43087;DHT22;28708;52.224;6.924;2023-04-10T05:22:39;7.40;99.90
43087;DHT22;28708;52.224;6.924;2023-04-10T05:25:13;7.40;99.90
43087;DHT22;28708;52.224;6.924;2023-04-10T05:27:58;7.50;99.90
43087;DHT22;28708;52.224;6.924;2023-04-10T05:30:43;7.60;99.90
43087;DHT22;28708;52.224;6.924;2023-04-10T05:33:26;7.70;99.90
43087;DHT22;28708;52.224;6.924;2023-04-10T05:36:21;7.70;99.90
43087;DHT22;28708;52.224;6.924;2023-04-10T05:39:16;7.70;99.90
43087;DHT22;28708;52.224;6.924;2023-04-10T05:41:57;7.70;99.90
43087;DHT22;28708;52.224;6.924;2023-04-10T05:44:29;7.80;99.90
43087;DHT22;28708;52.224;6.924;2023-04-10T05:47:05;7.90;99.90
43087;DHT22;28708;52.224;6.924;2023-04-10T05:49:50;7.90;99.90
43087;DHT22;28708;52.224;6.924;2023-04-10T05:52:16;7.90;99.90
43087;DHT22;28708;52.224;6.924;2023-04-10T05:54:59;8.10;99.90
43087;DHT22;28708;52.224;6.924;2023-04-10T05:57:39;8.20;99.90
43087;DHT22;28708;52.224;6.924;2023-04-10T06:00:21;8.30;99.90
43087;DHT22;28708;52.224;6.924;2023-04-10T06:03:12;8.40;99.90
43087;DHT22;28708;52.224;6.924;2023-04-10T06:05:48;8.50;99.90
43087;DHT22;28708;52.224;6.924;2023-04-10T06:08:14;8.70;99.90
43087;DHT22;28708;52.224;6.924;2023-04-10T06:10:40;8.80;99.90
43087;DHT22;28708;52.224;6.924;2023-04-10T06:13:09;8.90;99.90
43087;DHT22;28708;52.224;6.924;2023-04-10T06:15:35;9.00;99.90
43087;DHT22;28708;52.224;6.924;2023-04-10T06:18:01;9.00;99.90
43087;DHT22;28708;52.224;6.924;2023-04-10T06:20:26;9.00;99.90
43087;DHT22;28708;52.224;6.924;2023-04-10T06:22:52;9.20;99.90
43087;DHT22;28708;52.224;6.924;2023-04-10T06:25:18;9.20;99.90
43087;DHT22;28708;52.224;6.924;2023-04-10T06:27:44;9.40;99.90
43087;DHT22;28708;52.224;6.924;2023-04-10T06:30:09;9.50;99.90
43087;DHT22;28708;52.224;6.924;2023-04-10T06:32:35;9.60;99.90
43087;DHT22;28708;52.224;6.924;2023-04-10T06:35:01;9.70;99.90
43087;DHT22;28708;52.224;6.924;2023-04-10T06:37:28;9.90;99.90
43087;DHT22;28708;52.224;6.924;2023-04-10T06:40:09;10.00;99.90
43087;DHT22;28708;52.224;6.924;2023-04-10T06:42:36;10.10;99.90
43087;DHT22;28708;52.224;6.924;2023-04-10T06:45:08;10.30;99.90
43087;DHT22;28708;52.224;6.924;2023-04-10T06:47:34;10.40;99.90
43087;DHT22;28708;52.224;6.924;2023-04-10T06:49:59;10.50;99.90
43087;DHT22;28708;52.224;6.924;2023-04-10T06:52:25;10.60;99.90
43087;DHT22;28708;52.224;6.924;2023-04-10T06:54:51;10.70;99.90
43087;DHT22;28708;52.224;6.924;2023-04-10T06:57:17;10.70;99.90
43087;DHT22;28708;52.224;6.924;2023-04-10T06:59:43;10.70;99.90
43087;DHT22;28708;52.224;6.924;2023-04-10T07:02:09;10.80;99.90
43087;DHT22;28708;52.224;6.924;2023-04-10T07:04:35;10.60;99.90
43087;DHT22;28708;52.224;6.924;2023-04-10T07:07:01;10.70;99.90
43087;DHT22;28708;52.224;6.924;2023-04-10T07:09:28;10.80;99.90
43087;DHT22;28708;52.224;6.924;2023-04-10T07:11:54;10.80;99.90
43087;DHT22;28708;52.224;6.924;2023-04-10T07:14:19;10.80;99.90
43087;DHT22;28708;52.224;6.924;2023-04-10T07:16:45;11.00;99.90
43087;DHT22;28708;52.224;6.924;2023-04-10T07:19:11;11.10;99.90
43087;DHT22;28708;52.224;6.924;2023-04-10T07:21:36;11.20;99.90
43087;DHT22;28708;52.224;6.924;2023-04-10T07:24:02;11.40;99.90
43087;DHT22;28708;52.224;6.924;2023-04-10T07:26:28;11.50;99.90
43087;DHT22;28708;52.224;6.924;2023-04-10T07:28:53;11.50;99.90
43087;DHT22;28708;52.224;6.924;2023-04-10T07:31:19;11.50;99.90
43087;DHT22;28708;52.224;6.924;2023-04-10T07:33:45;11.40;99.90
43087;DHT22;28708;52.224;6.924;2023-04-10T07:36:11;11.50;99.90
43087;DHT22;28708;52.224;6.924;2023-04-10T07:38:37;11.40;99.90
43087;DHT22;28708;52.224;6.924;2023-04-10T07:41:03;11.40;99.90
43087;DHT22;28708;52.224;6.924;2023-04-10T07:43:29;11.40;99.90
43087;DHT22;28708;52.224;6.924;2023-04-10T07:45:55;11.50;99.90
43087;DHT22;28708;52.224;6.924;2023-04-10T07:48:21;11.70;99.90
43087;DHT22;28708;52.224;6.924;2023-04-10T07:50:46;11.60;99.90
43087;DHT22;28708;52.224;6.924;2023-04-10T07:53:12;11.60;99.90
43087;DHT22;28708;52.224;6.924;2023-04-10T07:55:43;11.70;99.90
43087;DHT22;28708;52.224;6.924;2023-04-10T07:58:09;11.90;99.90
43087;DHT22;28708;52.224;6.924;2023-04-10T08:00:35;12.10;99.90
43087;DHT22;28708;52.224;6.924;2023-04-10T08:03:03;12.20;99.90
43087;DHT22;28708;52.224;6.924;2023-04-10T08:05:28;12.30;99.90
43087;DHT22;28708;52.224;6.924;2023-04-10T08:07:54;12.50;99.90
43087;DHT22;28708;52.224;6.924;2023-04-10T08:10:20;12.50;99.90
43087;DHT22;28708;52.224;6.924;2023-04-10T08:12:45;12.60;99.90
43087;DHT22;28708;52.224;6.924;2023-04-10T08:15:11;12.60;99.90
43087;DHT22;28708;52.224;6.924;2023-04-10T08:17:37;12.60;99.90
43087;DHT22;28708;52.224;6.924;2023-04-10T08:20:03;12.80;99.90
43087;DHT22;28708;52.224;6.924;2023-04-10T08:22:29;12.80;99.90
43087;DHT22;28708;52.224;6.924;2023-04-10T08:24:55;12.90;99.90
43087;DHT22;28708;52.224;6.924;2023-04-10T08:27:20;13.10;99.90
43087;DHT22;28708;52.224;6.924;2023-04-10T08:29:46;13.10;99.90
43087;DHT22;28708;52.224;6.924;2023-04-10T08:32:12;12.90;99.90
43087;DHT22;28708;52.224;6.924;2023-04-10T08:34:37;13.00;99.90
43087;DHT22;28708;52.224;6.924;2023-04-10T08:37:06;13.10;99.90
43087;DHT22;28708;52.224;6.924;2023-04-10T08:39:34;13.30;99.90
43087;DHT22;28708;52.224;6.924;2023-04-10T08:42:01;13.30;99.90
43087;DHT22;28708;52.224;6.924;2023-04-10T08:44:27;13.50;99.90
43087;DHT22;28708;52.224;6.924;2023-04-10T08:46:56;13.40;99.90
43087;DHT22;28708;52.224;6.924;2023-04-10T08:49:46;13.50;99.90
43087;DHT22;28708;52.224;6.924;2023-04-10T08:52:15;13.70;99.90
43087;DHT22;28708;52.224;6.924;2023-04-10T08:54:46;13.80;99.90
43087;DHT22;28708;52.224;6.924;2023-04-10T08:57:14;13.70;99.90
43087;DHT22;28708;52.224;6.924;2023-04-10T08:59:45;13.80;99.90
43087;DHT22;28708;52.224;6.924;2023-04-10T09:02:12;13.90;99.90
43087;DHT22;28708;52.224;6.924;2023-04-10T09:04:37;13.80;99.90
43087;DHT22;28708;52.224;6.924;2023-04-10T09:07:03;13.80;99.90
43087;DHT22;28708;52.224;6.924;2023-04-10T09:09:29;13.70;99.90
43087;DHT22;28708;52.224;6.924;2023-04-10T09:11:58;13.90;99.90
43087;DHT22;28708;52.224;6.924;2023-04-10T09:14:29;13.90;99.90
43087;DHT22;28708;52.224;6.924;2023-04-10T09:17:20;14.00;99.90
43087;DHT22;28708;52.224;6.924;2023-04-10T09:19:51;14.20;99.90
43087;DHT22;28708;52.224;6.924;2023-04-10T09:22:27;14.80;99.90
43087;DHT22;28708;52.224;6.924;2023-04-10T09:24:53;14.80;99.90
43087;DHT22;28708;52.224;6.924;2023-04-10T09:27:33;15.40;99.90
43087;DHT22;28708;52.224;6.924;2023-04-10T09:30:00;15.60;99.90
43087;DHT22;28708;52.224;6.924;2023-04-10T09:32:42;16.40;99.90
43087;DHT22;28708;52.224;6.924;2023-04-10T09:35:12;15.50;99.90
43087;DHT22;28708;52.224;6.924;2023-04-10T09:37:39;15.20;99.90
43087;DHT22;28708;52.224;6.924;2023-04-10T09:40:22;15.80;99.90
43087;DHT22;28708;52.224;6.924;2023-04-10T09:42:49;15.70;99.90
43087;DHT22;28708;52.224;6.924;2023-04-10T09:45:15;15.40;99.90
43087;DHT22;28708;52.224;6.924;2023-04-10T09:48:03;15.60;99.90
43087;DHT22;28708;52.224;6.924;2023-04-10T09:50:37;15.80;99.90
43087;DHT22;28708;52.224;6.924;2023-04-10T09:53:05;15.70;99.90
43087;DHT22;28708;52.224;6.924;2023-04-10T09:55:33;15.90;99.90
43087;DHT22;28708;52.224;6.924;2023-04-10T09:57:59;16.10;99.70
43087;DHT22;28708;52.224;6.924;2023-04-10T10:00:25;16.10;99.40
43087;DHT22;28708;52.224;6.924;2023-04-10T10:02:53;16.40;98.40
43087;DHT22;28708;52.224;6.924;2023-04-10T10:05:20;16.50;98.20
43087;DHT22;28708;52.224;6.924;2023-04-10T10:07:47;16.50;97.90
43087;DHT22;28708;52.224;6.924;2023-04-10T10:10:13;17.20;96.90
43087;DHT22;28708;52.224;6.924;2023-04-10T10:12:43;17.30;95.70
43087;DHT22;28708;52.224;6.924;2023-04-10T10:15:15;17.90;95.50
43087;DHT22;28708;52.224;6.924;2023-04-10T10:18:00;18.10;94.60
43087;DHT22;28708;52.224;6.924;2023-04-10T10:20:30;17.50;94.40
43087;DHT22;28708;52.224;6.924;2023-04-10T10:22:57;17.40;95.10
43087;DHT22;28708;52.224;6.924;2023-04-10T10:25:23;16.90;94.50
43087;DHT22;28708;52.224;6.924;2023-04-10T10:27:51;16.80;94.40
43087;DHT22;28708;52.224;6.924;2023-04-10T10:30:18;16.90;93.90
43087;DHT22;28708;52.224;6.924;2023-04-10T10:32:45;17.20;94.20
43087;DHT22;28708;52.224;6.924;2023-04-10T10:35:12;17.20;93.00
43087;DHT22;28708;52.224;6.924;2023-04-10T10:37:38;17.10;93.70
43087;DHT22;28708;52.224;6.924;2023-04-10T10:40:15;17.20;93.80
43087;DHT22;28708;52.224;6.924;2023-04-10T10:45:36;16.90;93.40
43087;DHT22;28708;52.224;6.924;2023-04-10T10:48:04;16.60;94.10
43087;DHT22;28708;52.224;6.924;2023-04-10T10:53:38;17.60;92.70
43087;DHT22;28708;52.224;6.924;2023-04-10T10:58:53;17.50;92.20
43087;DHT22;28708;52.224;6.924;2023-04-10T11:01:20;17.30;92.30
43087;DHT22;28708;52.224;6.924;2023-04-10T11:03:47;17.50;91.90
43087;DHT22;28708;52.224;6.924;2023-04-10T11:06:17;17.30;92.30
43087;DHT22;28708;52.224;6.924;2023-04-10T11:08:48;17.10;92.40
43087;DHT22;28708;52.224;6.924;2023-04-10T11:11:18;17.20;92.90
43087;DHT22;28708;52.224;6.924;2023-04-10T11:19:09;16.40;93.50
43087;DHT22;28708;52.224;6.924;2023-04-10T11:22:06;16.30;93.40
43087;DHT22;28708;52.224;6.924;2023-04-10T11:24:55;16.50;93.70
43087;DHT22;28708;52.224;6.924;2023-04-10T11:27:41;16.90;93.30
43087;DHT22;28708;52.224;6.924;2023-04-10T11:30:34;17.30;93.10
43087;DHT22;28708;52.224;6.924;2023-04-10T11:33:01;17.60;92.00
43087;DHT22;28708;52.224;6.924;2023-04-10T11:35:27;17.70;92.60
43087;DHT22;28708;52.224;6.924;2023-04-10T11:40:34;17.10;92.50
43087;DHT22;28708;52.224;6.924;2023-04-10T11:43:13;17.20;92.00
43087;DHT22;28708;52.224;6.924;2023-04-10T11:45:39;17.10;92.00
43087;DHT22;28708;52.224;6.924;2023-04-10T11:48:05;16.90;92.00
43087;DHT22;28708;52.224;6.924;2023-04-10T11:50:32;17.00;91.80
43087;DHT22;28708;52.224;6.924;2023-04-10T11:53:00;17.00;92.30
43087;DHT22;28708;52.224;6.924;2023-04-10T11:55:36;16.90;92.00
43087;DHT22;28708;52.224;6.924;2023-04-10T11:58:02;16.90;91.90
43087;DHT22;28708;52.224;6.924;2023-04-10T12:00:28;17.00;91.80
43087;DHT22;28708;52.224;6.924;2023-04-10T12:02:53;16.90;92.10
43087;DHT22;28708;52.224;6.924;2023-04-10T12:05:19;17.20;92.30
43087;DHT22;28708;52.224;6.924;2023-04-10T12:07:47;17.10;92.10
43087;DHT22;28708;52.224;6.924;2023-04-10T12:10:12;16.90;92.00
43087;DHT22;28708;52.224;6.924;2023-04-10T12:12:38;16.80;92.20
43087;DHT22;28708;52.224;6.924;2023-04-10T12:15:27;17.10;92.40
43087;DHT22;28708;52.224;6.924;2023-04-10T12:17:54;17.10;91.50
43087;DHT22;28708;52.224;6.924;2023-04-10T12:20:20;17.10;91.90
43087;DHT22;28708;52.224;6.924;2023-04-10T12:22:48;17.10;91.60
43087;DHT22;28708;52.224;6.924;2023-04-10T12:25:14;17.50;91.90
43087;DHT22;28708;52.224;6.924;2023-04-10T12:27:48;17.40;91.30
43087;DHT22;28708;52.224;6.924;2023-04-10T12:30:15;17.00;91.30
43087;DHT22;28708;52.224;6.924;2023-04-10T12:32:50;17.00;90.90
43087;DHT22;28708;52.224;6.924;2023-04-10T12:35:16;17.00;91.80
43087;DHT22;28708;52.224;6.924;2023-04-10T12:38:00;17.40;91.60
43087;DHT22;28708;52.224;6.924;2023-04-10T12:40:26;17.70;90.60
43087;DHT22;28708;52.224;6.924;2023-04-10T12:42:52;17.60;90.60
43087;DHT22;28708;52.224;6.924;2023-04-10T12:45:17;17.80;90.90
43087;DHT22;28708;52.224;6.924;2023-04-10T12:48:08;17.70;90.50
43087;DHT22;28708;52.224;6.924;2023-04-10T12:59:31;17.50;89.10
43087;DHT22;28708;52.224;6.924;2023-04-10T13:01:57;17.60;90.20
43087;DHT22;28708;52.224;6.924;2023-04-10T13:04:23;17.40;90.00
43087;DHT22;28708;52.224;6.924;2023-04-10T13:06:49;17.30;90.10
43087;DHT22;28708;52.224;6.924;2023-04-10T13:09:17;17.20;88.20
43087;DHT22;28708;52.224;6.924;2023-04-10T13:11:43;17.30;89.00
43087;DHT22;28708;52.224;6.924;2023-04-10T13:14:08;17.00;87.70
43087;DHT22;28708;52.224;6.924;2023-04-10T13:16:35;16.90;87.00
43087;DHT22;28708;52.224;6.924;2023-04-10T13:19:01;16.80;87.50
43087;DHT22;28708;52.224;6.924;2023-04-10T13:21:28;16.80;87.70
43087;DHT22;28708;52.224;6.924;2023-04-10T13:23:54;16.90;87.80
43087;DHT22;28708;52.224;6.924;2023-04-10T13:26:21;17.10;87.40
43087;DHT22;28708;52.224;6.924;2023-04-10T13:28:47;16.80;87.70
43087;DHT22;28708;52.224;6.924;2023-04-10T13:31:13;16.90;88.20
43087;DHT22;28708;52.224;6.924;2023-04-10T13:33:46;17.10;87.90
43087;DHT22;28708;52.224;6.924;2023-04-10T13:36:13;16.90;87.20
43087;DHT22;28708;52.224;6.924;2023-04-10T13:38:39;16.90;87.60
43087;DHT22;28708;52.224;6.924;2023-04-10T13:41:04;17.00;87.50
43087;DHT22;28708;52.224;6.924;2023-04-10T13:43:30;17.00;87.60
43087;DHT22;28708;52.224;6.924;2023-04-10T13:45:56;17.10;87.40
43087;DHT22;28708;52.224;6.924;2023-04-10T13:48:21;17.10;87.50
43087;DHT22;28708;52.224;6.924;2023-04-10T13:50:47;17.20;86.60
43087;DHT22;28708;52.224;6.924;2023-04-10T13:53:13;17.20;86.00
43087;DHT22;28708;52.224;6.924;2023-04-10T13:55:38;16.90;85.10
43087;DHT22;28708;52.224;6.924;2023-04-10T13:58:09;16.70;86.30
43087;DHT22;28708;52.224;6.924;2023-04-10T14:00:38;16.70;86.60
43087;DHT22;28708;52.224;6.924;2023-04-10T14:03:03;16.80;86.60
43087;DHT22;28708;52.224;6.924;2023-04-10T14:05:29;16.80;86.50
43087;DHT22;28708;52.224;6.924;2023-04-10T14:07:55;16.70;86.40
43087;DHT22;28708;52.224;6.924;2023-04-10T14:10:22;16.70;87.20
43087;DHT22;28708;52.224;6.924;2023-04-10T14:12:48;16.80;86.60
43087;DHT22;28708;52.224;6.924;2023-04-10T14:15:13;16.70;86.70
43087;DHT22;28708;52.224;6.924;2023-04-10T14:17:39;16.50;86.90
43087;DHT22;28708;52.224;6.924;2023-04-10T14:20:05;16.40;87.90
43087;DHT22;28708;52.224;6.924;2023-04-10T14:22:31;16.40;87.50
43087;DHT22;28708;52.224;6.924;2023-04-10T14:24:56;16.40;87.70
43087;DHT22;28708;52.224;6.924;2023-04-10T14:27:22;16.40;87.30
43087;DHT22;28708;52.224;6.924;2023-04-10T14:29:48;16.40;87.50
43087;DHT22;28708;52.224;6.924;2023-04-10T14:32:13;16.30;88.30
43087;DHT22;28708;52.224;6.924;2023-04-10T14:34:39;16.40;88.20
43087;DHT22;28708;52.224;6.924;2023-04-10T14:37:04;16.30;87.20
43087;DHT22;28708;52.224;6.924;2023-04-10T14:39:31;16.30;87.60
43087;DHT22;28708;52.224;6.924;2023-04-10T14:41:58;16.20;88.40
43087;DHT22;28708;52.224;6.924;2023-04-10T14:44:23;16.30;87.80
43087;DHT22;28708;52.224;6.924;2023-04-10T14:46:49;16.30;88.10
43087;DHT22;28708;52.224;6.924;2023-04-10T14:49:15;16.20;87.40
43087;DHT22;28708;52.224;6.924;2023-04-10T14:51:44;16.20;87.30
43087;DHT22;28708;52.224;6.924;2023-04-10T14:54:12;16.20;87.00
43087;DHT22;28708;52.224;6.924;2023-04-10T14:56:38;16.10;88.70
43087;DHT22;28708;52.224;6.924;2023-04-10T14:59:04;16.10;87.50
43087;DHT22;28708;52.224;6.924;2023-04-10T15:01:31;16.00;87.20
43087;DHT22;28708;52.224;6.924;2023-04-10T15:03:57;16.00;86.90
43087;DHT22;28708;52.224;6.924;2023-04-10T15:06:22;16.00;87.50
43087;DHT22;28708;52.224;6.924;2023-04-10T15:08:49;16.00;87.40
43087;DHT22;28708;52.224;6.924;2023-04-10T15:11:15;16.00;87.50
43087;DHT22;28708;52.224;6.924;2023-04-10T15:13:40;16.10;87.30
43087;DHT22;28708;52.224;6.924;2023-04-10T15:16:06;16.00;87.90
43087;DHT22;28708;52.224;6.924;2023-04-10T15:18:32;16.00;87.90
43087;DHT22;28708;52.224;6.924;2023-04-10T15:20:58;16.00;88.30
43087;DHT22;28708;52.224;6.924;2023-04-10T15:23:24;16.10;88.30
43087;DHT22;28708;52.224;6.924;2023-04-10T15:25:51;16.00;87.90
43087;DHT22;28708;52.224;6.924;2023-04-10T15:28:16;15.90;88.00
43087;DHT22;28708;52.224;6.924;2023-04-10T15:30:42;15.80;88.30
43087;DHT22;28708;52.224;6.924;2023-04-10T15:33:09;16.00;87.50
43087;DHT22;28708;52.224;6.924;2023-04-10T15:35:34;16.00;87.70
43087;DHT22;28708;52.224;6.924;2023-04-10T15:38:02;16.00;86.80
43087;DHT22;28708;52.224;6.924;2023-04-10T15:40:28;15.90;87.20
43087;DHT22;28708;52.224;6.924;2023-04-10T15:42:53;15.90;87.00
43087;DHT22;28708;52.224;6.924;2023-04-10T15:45:19;16.00;87.40
43087;DHT22;28708;52.224;6.924;2023-04-10T15:47:45;16.10;86.90
43087;DHT22;28708;52.224;6.924;2023-04-10T15:50:12;15.90;86.70
43087;DHT22;28708;52.224;6.924;2023-04-10T15:52:38;16.00;86.60
43087;DHT22;28708;52.224;6.924;2023-04-10T15:55:04;15.90;87.10
43087;DHT22;28708;52.224;6.924;2023-04-10T15:57:30;15.90;86.90
43087;DHT22;28708;52.224;6.924;2023-04-10T15:59:56;15.90;86.50
43087;DHT22;28708;52.224;6.924;2023-04-10T16:02:24;15.80;87.00
43087;DHT22;28708;52.224;6.924;2023-04-10T16:04:51;15.90;86.60
43087;DHT22;28708;52.224;6.924;2023-04-10T16:07:16;15.90;87.20
43087;DHT22;28708;52.224;6.924;2023-04-10T16:09:42;15.90;87.10
43087;DHT22;28708;52.224;6.924;2023-04-10T16:12:10;15.90;86.70
43087;DHT22;28708;52.224;6.924;2023-04-10T16:14:36;16.10;86.20
43087;DHT22;28708;52.224;6.924;2023-04-10T16:17:01;16.10;86.40
43087;DHT22;28708;52.224;6.924;2023-04-10T16:19:30;16.00;86.50
43087;DHT22;28708;52.224;6.924;2023-04-10T16:21:56;16.10;87.90
43087;DHT22;28708;52.224;6.924;2023-04-10T16:24:22;16.00;87.50
43087;DHT22;28708;52.224;6.924;2023-04-10T16:26:48;15.90;88.30
43087;DHT22;28708;52.224;6.924;2023-04-10T16:29:14;15.90;88.40